sensor_id;sensor_type;location;lat;lon;timestamp;P1;durP1;ratioP1;P2;durP2;ratioP2
22632;SDS011;11483;55.828;37.488;2023-02-28T00:01:24;10.20;;;3.93;;
22632;SDS011;11483;55.828;37.488;2023-02-28T00:03:51;6.73;;;3.57;;
22632;SDS011;11483;55.828;37.488;2023-02-28T00:06:17;13.93;;;4.77;;
22632;SDS011;11483;55.828;37.488;2023-02-28T00:08:43;10.23;;;4.47;;
22632;SDS011;11483;55.828;37.488;2023-02-28T00:11:10;17.70;;;5.27;;
22632;SDS011;11483;55.828;37.488;2023-02-28T00:13:38;21.27;;;5.03;;
22632;SDS011;11483;55.828;37.488;2023-02-28T00:16:07;19.27;;;5.17;;
22632;SDS011;11483;55.828;37.488;2023-02-28T00:18:35;15.90;;;5.10;;
22632;SDS011;11483;55.828;37.488;2023-02-28T00:21:03;8.67;;;4.40;;
22632;SDS011;11483;55.828;37.488;2023-02-28T00:23:29;12.73;;;4.23;;
22632;SDS011;11483;55.828;37.488;2023-02-28T00:25:55;27.03;;;4.77;;
22632;SDS011;11483;55.828;37.488;2023-02-28T00:28:21;17.77;;;5.73;;
22632;SDS011;11483;55.828;37.488;2023-02-28T00:30:47;13.03;;;4.00;;
22632;SDS011;11483;55.828;37.488;2023-02-28T00:33:13;13.10;;;5.43;;
22632;SDS011;11483;55.828;37.488;2023-02-28T00:35:39;11.97;;;4.40;;
22632;SDS011;11483;55.828;37.488;2023-02-28T00:38:05;10.77;;;4.53;;
22632;SDS011;11483;55.828;37.488;2023-02-28T00:40:31;9.23;;;4.40;;
22632;SDS011;11483;55.828;37.488;2023-02-28T00:42:57;12.67;;;4.50;;
22632;SDS011;11483;55.828;37.488;2023-02-28T00:45:23;12.33;;;4.57;;
22632;SDS011;11483;55.828;37.488;2023-02-28T00:47:49;10.50;;;4.57;;
22632;SDS011;11483;55.828;37.488;2023-02-28T00:50:18;13.10;;;4.67;;
22632;SDS011;11483;55.828;37.488;2023-02-28T00:52:45;7.97;;;3.90;;
22632;SDS011;11483;55.828;37.488;2023-02-28T00:55:11;8.80;;;3.70;;
22632;SDS011;11483;55.828;37.488;2023-02-28T00:57:37;14.57;;;4.63;;
22632;SDS011;11483;55.828;37.488;2023-02-28T01:00:03;11.60;;;4.47;;
22632;SDS011;11483;55.828;37.488;2023-02-28T01:02:30;9.17;;;3.70;;
22632;SDS011;11483;55.828;37.488;2023-02-28T01:04:56;11.07;;;3.87;;
22632;SDS011;11483;55.828;37.488;2023-02-28T01:07:22;12.13;;;4.10;;
22632;SDS011;11483;55.828;37.488;2023-02-28T01:09:48;9.20;;;4.30;;
22632;SDS011;11483;55.828;37.488;2023-02-28T01:12:14;10.77;;;4.70;;
22632;SDS011;11483;55.828;37.488;2023-02-28T01:14:41;13.37;;;4.23;;
22632;SDS011;11483;55.828;37.488;2023-02-28T01:17:07;9.70;;;4.43;;
22632;SDS011;11483;55.828;37.488;2023-02-28T01:19:34;10.87;;;4.40;;
22632;SDS011;11483;55.828;37.488;2023-02-28T01:22:01;11.03;;;4.43;;
22632;SDS011;11483;55.828;37.488;2023-02-28T01:24:30;21.23;;;4.80;;
22632;SDS011;11483;55.828;37.488;2023-02-28T01:26:56;9.83;;;4.47;;
22632;SDS011;11483;55.828;37.488;2023-02-28T01:29:22;10.63;;;5.27;;
22632;SDS011;11483;55.828;37.488;2023-02-28T01:31:48;10.57;;;4.20;;
22632;SDS011;11483;55.828;37.488;2023-02-28T01:34:14;10.17;;;4.77;;
22632;SDS011;11483;55.828;37.488;2023-02-28T01:36:40;10.37;;;4.27;;
22632;SDS011;11483;55.828;37.488;2023-02-28T01:39:06;10.80;;;4.87;;
22632;SDS011;11483;55.828;37.488;2023-02-28T01:41:32;12.10;;;4.63;;
22632;SDS011;11483;55.828;37.488;2023-02-28T01:44:03;13.40;;;4.73;;
22632;SDS011;11483;55.828;37.488;2023-02-28T01:46:32;9.93;;;4.27;;
22632;SDS011;11483;55.828;37.488;2023-02-28T01:49:13;9.80;;;3.63;;
22632;SDS011;11483;55.828;37.488;2023-02-28T01:51:43;12.47;;;4.30;;
22632;SDS011;11483;55.828;37.488;2023-02-28T01:54:20;18.87;;;5.20;;
22632;SDS011;11483;55.828;37.488;2023-02-28T01:56:53;10.17;;;4.40;;
22632;SDS011;11483;55.828;37.488;2023-02-28T01:59:34;11.03;;;4.53;;
22632;SDS011;11483;55.828;37.488;2023-02-28T02:02:14;11.50;;;4.77;;
22632;SDS011;11483;55.828;37.488;2023-02-28T02:05:01;10.53;;;4.60;;
22632;SDS011;11483;55.828;37.488;2023-02-28T02:07:49;11.53;;;4.27;;
22632;SDS011;11483;55.828;37.488;2023-02-28T02:10:35;9.83;;;3.93;;
22632;SDS011;11483;55.828;37.488;2023-02-28T02:18:54;13.20;;;3.67;;
22632;SDS011;11483;55.828;37.488;2023-02-28T02:21:55;11.23;;;4.57;;
22632;SDS011;11483;55.828;37.488;2023-02-28T02:38:16;10.27;;;5.07;;
22632;SDS011;11483;55.828;37.488;2023-02-28T02:43:57;8.40;;;3.77;;
22632;SDS011;11483;55.828;37.488;2023-02-28T02:46:33;12.10;;;4.57;;
22632;SDS011;11483;55.828;37.488;2023-02-28T02:49:04;5.80;;;3.40;;
22632;SDS011;11483;55.828;37.488;2023-02-28T02:51:34;9.33;;;4.03;;
22632;SDS011;11483;55.828;37.488;2023-02-28T02:54:02;6.83;;;3.40;;
22632;SDS011;11483;55.828;37.488;2023-02-28T02:56:33;7.53;;;3.70;;
22632;SDS011;11483;55.828;37.488;2023-02-28T02:59:02;7.17;;;3.50;;
22632;SDS011;11483;55.828;37.488;2023-02-28T03:01:32;5.80;;;3.03;;
22632;SDS011;11483;55.828;37.488;2023-02-28T03:04:04;8.17;;;3.37;;
22632;SDS011;11483;55.828;37.488;2023-02-28T03:06:33;9.57;;;3.47;;
22632;SDS011;11483;55.828;37.488;2023-02-28T03:09:00;6.53;;;3.73;;
22632;SDS011;11483;55.828;37.488;2023-02-28T03:11:26;6.87;;;3.37;;
22632;SDS011;11483;55.828;37.488;2023-02-28T03:27:39;8.57;;;3.43;;
22632;SDS011;11483;55.828;37.488;2023-02-28T03:30:31;8.10;;;3.70;;
22632;SDS011;11483;55.828;37.488;2023-02-28T03:33:26;7.77;;;3.37;;
22632;SDS011;11483;55.828;37.488;2023-02-28T03:36:18;10.47;;;3.87;;
22632;SDS011;11483;55.828;37.488;2023-02-28T03:38:49;10.70;;;4.40;;
22632;SDS011;11483;55.828;37.488;2023-02-28T03:41:21;11.20;;;4.10;;
22632;SDS011;11483;55.828;37.488;2023-02-28T03:43:54;7.27;;;3.77;;
22632;SDS011;11483;55.828;37.488;2023-02-28T03:46:41;8.33;;;3.93;;
22632;SDS011;11483;55.828;37.488;2023-02-28T03:49:32;6.30;;;3.23;;
22632;SDS011;11483;55.828;37.488;2023-02-28T03:52:10;9.13;;;4.43;;
22632;SDS011;11483;55.828;37.488;2023-02-28T03:54:41;10.77;;;4.07;;
22632;SDS011;11483;55.828;37.488;2023-02-28T03:57:23;10.17;;;4.70;;
22632;SDS011;11483;55.828;37.488;2023-02-28T03:59:59;6.60;;;3.47;;
22632;SDS011;11483;55.828;37.488;2023-02-28T04:02:31;9.30;;;4.00;;
22632;SDS011;11483;55.828;37.488;2023-02-28T04:04:57;9.60;;;3.40;;
22632;SDS011;11483;55.828;37.488;2023-02-28T04:07:24;7.90;;;3.60;;
22632;SDS011;11483;55.828;37.488;2023-02-28T04:09:53;6.73;;;3.37;;
22632;SDS011;11483;55.828;37.488;2023-02-28T04:12:19;8.07;;;3.77;;
22632;SDS011;11483;55.828;37.488;2023-02-28T04:14:48;7.90;;;4.03;;
22632;SDS011;11483;55.828;37.488;2023-02-28T04:17:15;8.97;;;4.43;;
22632;SDS011;11483;55.828;37.488;2023-02-28T04:19:41;9.60;;;3.30;;
22632;SDS011;11483;55.828;37.488;2023-02-28T04:22:07;8.43;;;3.57;;
22632;SDS011;11483;55.828;37.488;2023-02-28T04:24:34;6.43;;;3.27;;
22632;SDS011;11483;55.828;37.488;2023-02-28T04:27:00;7.90;;;3.63;;
22632;SDS011;11483;55.828;37.488;2023-02-28T04:29:28;12.83;;;4.47;;
22632;SDS011;11483;55.828;37.488;2023-02-28T04:31:55;7.23;;;3.83;;
22632;SDS011;11483;55.828;37.488;2023-02-28T04:34:28;5.70;;;2.80;;
22632;SDS011;11483;55.828;37.488;2023-02-28T04:36:55;9.50;;;3.93;;
22632;SDS011;11483;55.828;37.488;2023-02-28T04:39:22;5.83;;;2.97;;
22632;SDS011;11483;55.828;37.488;2023-02-28T04:41:49;8.33;;;3.73;;
22632;SDS011;11483;55.828;37.488;2023-02-28T04:44:15;4.77;;;2.70;;
22632;SDS011;11483;55.828;37.488;2023-02-28T04:46:41;8.93;;;3.77;;
22632;SDS011;11483;55.828;37.488;2023-02-28T04:49:08;4.87;;;2.80;;
22632;SDS011;11483;55.828;37.488;2023-02-28T04:51:38;7.13;;;3.10;;
22632;SDS011;11483;55.828;37.488;2023-02-28T04:54:04;5.57;;;2.83;;
22632;SDS011;11483;55.828;37.488;2023-02-28T04:56:30;10.43;;;3.07;;
22632;SDS011;11483;55.828;37.488;2023-02-28T04:58:56;8.63;;;2.93;;
22632;SDS011;11483;55.828;37.488;2023-02-28T05:01:23;6.23;;;3.10;;
22632;SDS011;11483;55.828;37.488;2023-02-28T05:03:51;5.23;;;2.83;;
22632;SDS011;11483;55.828;37.488;2023-02-28T05:06:18;6.53;;;2.77;;
22632;SDS011;11483;55.828;37.488;2023-02-28T05:08:45;5.63;;;2.63;;
22632;SDS011;11483;55.828;37.488;2023-02-28T05:11:13;6.47;;;3.17;;
22632;SDS011;11483;55.828;37.488;2023-02-28T05:13:48;5.33;;;2.73;;
22632;SDS011;11483;55.828;37.488;2023-02-28T05:16:15;6.60;;;2.53;;
22632;SDS011;11483;55.828;37.488;2023-02-28T05:18:41;5.60;;;2.80;;
22632;SDS011;11483;55.828;37.488;2023-02-28T05:21:22;5.43;;;2.87;;
22632;SDS011;11483;55.828;37.488;2023-02-28T05:23:51;5.50;;;2.60;;
22632;SDS011;11483;55.828;37.488;2023-02-28T05:26:18;5.13;;;2.27;;
22632;SDS011;11483;55.828;37.488;2023-02-28T05:28:44;6.10;;;2.33;;
22632;SDS011;11483;55.828;37.488;2023-02-28T05:31:10;9.07;;;3.13;;
22632;SDS011;11483;55.828;37.488;2023-02-28T05:33:40;7.57;;;3.03;;
22632;SDS011;11483;55.828;37.488;2023-02-28T05:36:06;4.77;;;1.97;;
22632;SDS011;11483;55.828;37.488;2023-02-28T05:38:32;5.63;;;2.67;;
22632;SDS011;11483;55.828;37.488;2023-02-28T05:40:58;6.43;;;2.70;;
22632;SDS011;11483;55.828;37.488;2023-02-28T05:43:24;7.60;;;3.30;;
22632;SDS011;11483;55.828;37.488;2023-02-28T05:45:50;4.97;;;2.10;;
22632;SDS011;11483;55.828;37.488;2023-02-28T05:48:16;5.60;;;3.17;;
22632;SDS011;11483;55.828;37.488;2023-02-28T05:50:43;3.50;;;2.23;;
22632;SDS011;11483;55.828;37.488;2023-02-28T05:53:11;5.57;;;2.97;;
22632;SDS011;11483;55.828;37.488;2023-02-28T05:55:37;4.97;;;2.40;;
22632;SDS011;11483;55.828;37.488;2023-02-28T05:58:03;9.80;;;2.60;;
22632;SDS011;11483;55.828;37.488;2023-02-28T06:00:29;7.00;;;2.87;;
22632;SDS011;11483;55.828;37.488;2023-02-28T06:02:54;6.07;;;3.40;;
22632;SDS011;11483;55.828;37.488;2023-02-28T06:05:23;5.83;;;2.93;;
22632;SDS011;11483;55.828;37.488;2023-02-28T06:07:49;4.43;;;2.90;;
22632;SDS011;11483;55.828;37.488;2023-02-28T06:10:15;4.33;;;2.37;;
22632;SDS011;11483;55.828;37.488;2023-02-28T06:12:41;6.03;;;2.70;;
22632;SDS011;11483;55.828;37.488;2023-02-28T06:15:10;8.47;;;2.60;;
22632;SDS011;11483;55.828;37.488;2023-02-28T06:17:39;4.73;;;2.67;;
22632;SDS011;11483;55.828;37.488;2023-02-28T06:20:09;4.33;;;2.70;;
22632;SDS011;11483;55.828;37.488;2023-02-28T06:22:37;4.20;;;2.20;;
22632;SDS011;11483;55.828;37.488;2023-02-28T06:25:04;4.63;;;2.33;;
22632;SDS011;11483;55.828;37.488;2023-02-28T06:27:31;5.13;;;2.67;;
22632;SDS011;11483;55.828;37.488;2023-02-28T06:29:57;4.20;;;2.37;;
22632;SDS011;11483;55.828;37.488;2023-02-28T06:32:23;2.97;;;1.83;;
22632;SDS011;11483;55.828;37.488;2023-02-28T06:34:49;6.30;;;2.10;;
22632;SDS011;11483;55.828;37.488;2023-02-28T06:37:16;5.30;;;2.50;;
22632;SDS011;11483;55.828;37.488;2023-02-28T06:39:43;4.30;;;2.23;;
22632;SDS011;11483;55.828;37.488;2023-02-28T06:42:09;11.47;;;2.30;;
22632;SDS011;11483;55.828;37.488;2023-02-28T06:44:35;7.33;;;3.00;;
22632;SDS011;11483;55.828;37.488;2023-02-28T06:47:02;8.67;;;2.50;;
22632;SDS011;11483;55.828;37.488;2023-02-28T06:49:32;5.53;;;3.10;;
22632;SDS011;11483;55.828;37.488;2023-02-28T06:52:00;5.53;;;2.37;;
22632;SDS011;11483;55.828;37.488;2023-02-28T06:54:26;5.30;;;2.23;;
22632;SDS011;11483;55.828;37.488;2023-02-28T06:56:52;3.00;;;2.23;;
22632;SDS011;11483;55.828;37.488;2023-02-28T06:59:19;4.93;;;2.27;;
22632;SDS011;11483;55.828;37.488;2023-02-28T07:01:45;4.20;;;2.17;;
22632;SDS011;11483;55.828;37.488;2023-02-28T07:04:11;6.07;;;2.40;;
22632;SDS011;11483;55.828;37.488;2023-02-28T07:06:38;4.63;;;2.53;;
22632;SDS011;11483;55.828;37.488;2023-02-28T07:09:04;5.23;;;2.40;;
22632;SDS011;11483;55.828;37.488;2023-02-28T07:11:30;9.47;;;3.07;;
22632;SDS011;11483;55.828;37.488;2023-02-28T07:13:56;7.30;;;2.03;;
22632;SDS011;11483;55.828;37.488;2023-02-28T07:16:23;3.90;;;2.63;;
22632;SDS011;11483;55.828;37.488;2023-02-28T07:18:51;5.47;;;2.43;;
22632;SDS011;11483;55.828;37.488;2023-02-28T07:21:18;5.43;;;2.90;;
22632;SDS011;11483;55.828;37.488;2023-02-28T07:23:44;6.50;;;2.67;;
22632;SDS011;11483;55.828;37.488;2023-02-28T07:26:11;5.27;;;2.40;;
22632;SDS011;11483;55.828;37.488;2023-02-28T07:28:40;5.27;;;2.90;;
22632;SDS011;11483;55.828;37.488;2023-02-28T07:31:10;5.10;;;2.40;;
22632;SDS011;11483;55.828;37.488;2023-02-28T07:33:39;5.07;;;2.50;;
22632;SDS011;11483;55.828;37.488;2023-02-28T07:36:15;4.97;;;2.47;;
22632;SDS011;11483;55.828;37.488;2023-02-28T07:38:47;4.13;;;2.10;;
22632;SDS011;11483;55.828;37.488;2023-02-28T07:41:18;3.50;;;2.30;;
22632;SDS011;11483;55.828;37.488;2023-02-28T07:43:46;5.63;;;2.67;;
22632;SDS011;11483;55.828;37.488;2023-02-28T07:46:13;7.43;;;2.83;;
22632;SDS011;11483;55.828;37.488;2023-02-28T07:48:40;7.43;;;2.87;;
22632;SDS011;11483;55.828;37.488;2023-02-28T07:51:07;3.83;;;1.97;;
22632;SDS011;11483;55.828;37.488;2023-02-28T07:53:33;5.07;;;3.27;;
22632;SDS011;11483;55.828;37.488;2023-02-28T07:55:59;5.70;;;2.70;;
22632;SDS011;11483;55.828;37.488;2023-02-28T07:58:26;5.30;;;2.37;;
22632;SDS011;11483;55.828;37.488;2023-02-28T08:00:53;5.10;;;2.33;;
22632;SDS011;11483;55.828;37.488;2023-02-28T08:03:20;6.23;;;3.13;;
22632;SDS011;11483;55.828;37.488;2023-02-28T08:05:47;5.40;;;2.30;;
22632;SDS011;11483;55.828;37.488;2023-02-28T08:08:14;6.07;;;2.70;;
22632;SDS011;11483;55.828;37.488;2023-02-28T08:10:40;6.03;;;2.77;;
22632;SDS011;11483;55.828;37.488;2023-02-28T08:13:07;4.53;;;2.43;;
22632;SDS011;11483;55.828;37.488;2023-02-28T08:15:32;6.10;;;2.90;;
22632;SDS011;11483;55.828;37.488;2023-02-28T08:17:58;8.77;;;2.80;;
22632;SDS011;11483;55.828;37.488;2023-02-28T08:20:25;4.63;;;2.37;;
22632;SDS011;11483;55.828;37.488;2023-02-28T08:22:51;4.37;;;2.23;;
22632;SDS011;11483;55.828;37.488;2023-02-28T08:25:17;5.57;;;2.87;;
22632;SDS011;11483;55.828;37.488;2023-02-28T08:27:43;6.37;;;2.60;;
22632;SDS011;11483;55.828;37.488;2023-02-28T08:30:10;4.27;;;2.50;;
22632;SDS011;11483;55.828;37.488;2023-02-28T08:32:37;4.17;;;2.37;;
22632;SDS011;11483;55.828;37.488;2023-02-28T08:35:04;4.27;;;2.60;;
22632;SDS011;11483;55.828;37.488;2023-02-28T08:37:30;11.57;;;3.10;;
22632;SDS011;11483;55.828;37.488;2023-02-28T08:39:56;3.67;;;1.93;;
22632;SDS011;11483;55.828;37.488;2023-02-28T08:42:22;5.20;;;2.70;;
22632;SDS011;11483;55.828;37.488;2023-02-28T08:44:49;4.40;;;2.23;;
22632;SDS011;11483;55.828;37.488;2023-02-28T08:47:14;4.53;;;2.23;;
22632;SDS011;11483;55.828;37.488;2023-02-28T08:49:40;5.63;;;2.20;;
22632;SDS011;11483;55.828;37.488;2023-02-28T08:52:06;3.70;;;1.97;;
22632;SDS011;11483;55.828;37.488;2023-02-28T08:54:32;4.70;;;2.07;;
22632;SDS011;11483;55.828;37.488;2023-02-28T08:56:59;4.90;;;2.30;;
22632;SDS011;11483;55.828;37.488;2023-02-28T08:59:25;4.90;;;2.30;;
22632;SDS011;11483;55.828;37.488;2023-02-28T09:01:51;3.53;;;2.17;;
22632;SDS011;11483;55.828;37.488;2023-02-28T09:04:17;5.20;;;2.37;;
22632;SDS011;11483;55.828;37.488;2023-02-28T09:06:43;6.40;;;2.47;;
22632;SDS011;11483;55.828;37.488;2023-02-28T09:09:10;6.20;;;2.27;;
22632;SDS011;11483;55.828;37.488;2023-02-28T09:11:36;4.73;;;2.43;;
22632;SDS011;11483;55.828;37.488;2023-02-28T09:14:02;4.07;;;2.27;;
22632;SDS011;11483;55.828;37.488;2023-02-28T09:16:29;4.00;;;2.17;;
22632;SDS011;11483;55.828;37.488;2023-02-28T09:18:56;4.60;;;2.43;;
22632;SDS011;11483;55.828;37.488;2023-02-28T09:21:22;5.17;;;2.37;;
22632;SDS011;11483;55.828;37.488;2023-02-28T09:23:49;3.77;;;2.07;;
22632;SDS011;11483;55.828;37.488;2023-02-28T09:26:20;3.17;;;2.20;;
22632;SDS011;11483;55.828;37.488;2023-02-28T09:28:48;4.57;;;2.50;;
22632;SDS011;11483;55.828;37.488;2023-02-28T09:31:16;3.53;;;2.17;;
22632;SDS011;11483;55.828;37.488;2023-02-28T09:33:46;2.73;;;2.00;;
22632;SDS011;11483;55.828;37.488;2023-02-28T09:36:17;2.10;;;1.70;;
22632;SDS011;11483;55.828;37.488;2023-02-28T09:38:44;10.07;;;2.53;;
22632;SDS011;11483;55.828;37.488;2023-02-28T09:41:32;7.90;;;2.20;;
22632;SDS011;11483;55.828;37.488;2023-02-28T09:47:10;4.70;;;2.80;;
22632;SDS011;11483;55.828;37.488;2023-02-28T09:49:52;5.43;;;2.17;;
22632;SDS011;11483;55.828;37.488;2023-02-28T09:52:20;5.03;;;2.20;;
22632;SDS011;11483;55.828;37.488;2023-02-28T09:54:49;3.47;;;1.63;;
22632;SDS011;11483;55.828;37.488;2023-02-28T10:02:37;3.60;;;2.47;;
22632;SDS011;11483;55.828;37.488;2023-02-28T10:05:33;4.47;;;2.37;;
22632;SDS011;11483;55.828;37.488;2023-02-28T10:13:14;5.07;;;1.77;;
22632;SDS011;11483;55.828;37.488;2023-02-28T10:15:47;4.43;;;2.30;;
22632;SDS011;11483;55.828;37.488;2023-02-28T10:18:16;2.97;;;1.97;;
22632;SDS011;11483;55.828;37.488;2023-02-28T10:20:49;5.50;;;2.33;;
22632;SDS011;11483;55.828;37.488;2023-02-28T10:23:21;7.93;;;2.33;;
22632;SDS011;11483;55.828;37.488;2023-02-28T10:25:57;3.23;;;2.30;;
22632;SDS011;11483;55.828;37.488;2023-02-28T10:28:25;7.20;;;2.73;;
22632;SDS011;11483;55.828;37.488;2023-02-28T10:30:54;3.10;;;2.07;;
22632;SDS011;11483;55.828;37.488;2023-02-28T10:35:51;4.00;;;2.10;;
22632;SDS011;11483;55.828;37.488;2023-02-28T10:38:19;3.53;;;2.43;;
22632;SDS011;11483;55.828;37.488;2023-02-28T10:40:47;4.73;;;2.30;;
22632;SDS011;11483;55.828;37.488;2023-02-28T10:45:39;4.87;;;2.67;;
22632;SDS011;11483;55.828;37.488;2023-02-28T10:56:33;8.27;;;2.20;;
22632;SDS011;11483;55.828;37.488;2023-02-28T11:01:20;6.30;;;2.33;;
22632;SDS011;11483;55.828;37.488;2023-02-28T11:03:46;8.77;;;2.50;;
22632;SDS011;11483;55.828;37.488;2023-02-28T11:06:17;6.17;;;2.83;;
22632;SDS011;11483;55.828;37.488;2023-02-28T11:08:52;4.37;;;2.57;;
22632;SDS011;11483;55.828;37.488;2023-02-28T11:11:20;5.97;;;2.20;;
22632;SDS011;11483;55.828;37.488;2023-02-28T11:13:50;7.97;;;3.00;;
22632;SDS011;11483;55.828;37.488;2023-02-28T11:16:19;3.87;;;2.27;;
22632;SDS011;11483;55.828;37.488;2023-02-28T11:18:47;5.00;;;2.13;;
22632;SDS011;11483;55.828;37.488;2023-02-28T11:21:21;4.70;;;2.63;;
22632;SDS011;11483;55.828;37.488;2023-02-28T11:23:51;5.00;;;2.37;;
22632;SDS011;11483;55.828;37.488;2023-02-28T11:26:38;5.30;;;2.73;;
22632;SDS011;11483;55.828;37.488;2023-02-28T11:29:11;7.20;;;2.80;;
22632;SDS011;11483;55.828;37.488;2023-02-28T11:31:42;5.33;;;2.73;;
22632;SDS011;11483;55.828;37.488;2023-02-28T11:34:22;5.80;;;2.60;;
22632;SDS011;11483;55.828;37.488;2023-02-28T11:36:51;6.20;;;2.60;;
22632;SDS011;11483;55.828;37.488;2023-02-28T11:39:20;4.83;;;2.73;;
22632;SDS011;11483;55.828;37.488;2023-02-28T11:52:52;6.03;;;2.30;;
22632;SDS011;11483;55.828;37.488;2023-02-28T12:03:40;4.80;;;2.67;;
22632;SDS011;11483;55.828;37.488;2023-02-28T12:06:33;5.60;;;2.87;;
22632;SDS011;11483;55.828;37.488;2023-02-28T12:28:48;4.50;;;2.40;;
22632;SDS011;11483;55.828;37.488;2023-02-28T12:31:23;5.60;;;2.67;;
22632;SDS011;11483;55.828;37.488;2023-02-28T12:33:53;5.30;;;2.87;;
22632;SDS011;11483;55.828;37.488;2023-02-28T12:36:26;4.00;;;2.50;;
22632;SDS011;11483;55.828;37.488;2023-02-28T12:38:55;4.63;;;2.63;;
22632;SDS011;11483;55.828;37.488;2023-02-28T12:41:46;6.13;;;2.80;;
22632;SDS011;11483;55.828;37.488;2023-02-28T12:44:17;5.57;;;2.93;;
22632;SDS011;11483;55.828;37.488;2023-02-28T12:47:05;6.37;;;2.83;;
22632;SDS011;11483;55.828;37.488;2023-02-28T12:49:39;4.90;;;2.77;;
22632;SDS011;11483;55.828;37.488;2023-02-28T12:52:22;5.73;;;2.70;;
22632;SDS011;11483;55.828;37.488;2023-02-28T13:01:01;8.53;;;2.70;;
22632;SDS011;11483;55.828;37.488;2023-02-28T13:09:17;4.73;;;2.93;;
22632;SDS011;11483;55.828;37.488;2023-02-28T13:11:48;5.90;;;2.70;;
22632;SDS011;11483;55.828;37.488;2023-02-28T13:14:22;7.30;;;2.60;;
22632;SDS011;11483;55.828;37.488;2023-02-28T13:17:02;10.60;;;2.90;;
22632;SDS011;11483;55.828;37.488;2023-02-28T13:19:37;6.63;;;2.60;;
22632;SDS011;11483;55.828;37.488;2023-02-28T13:22:37;8.60;;;3.00;;
22632;SDS011;11483;55.828;37.488;2023-02-28T13:28:12;5.03;;;2.63;;
22632;SDS011;11483;55.828;37.488;2023-02-28T13:31:02;6.53;;;2.17;;
22632;SDS011;11483;55.828;37.488;2023-02-28T13:36:07;4.57;;;2.27;;
22632;SDS011;11483;55.828;37.488;2023-02-28T13:38:45;7.43;;;2.20;;
22632;SDS011;11483;55.828;37.488;2023-02-28T13:49:31;4.47;;;2.30;;
22632;SDS011;11483;55.828;37.488;2023-02-28T14:00:28;3.90;;;2.20;;
22632;SDS011;11483;55.828;37.488;2023-02-28T14:05:43;4.67;;;2.50;;
22632;SDS011;11483;55.828;37.488;2023-02-28T14:08:16;4.37;;;2.10;;
22632;SDS011;11483;55.828;37.488;2023-02-28T14:10:49;4.40;;;2.40;;
22632;SDS011;11483;55.828;37.488;2023-02-28T14:16:20;5.13;;;2.33;;
22632;SDS011;11483;55.828;37.488;2023-02-28T14:21:24;4.87;;;2.10;;
22632;SDS011;11483;55.828;37.488;2023-02-28T14:37:45;4.67;;;2.43;;
22632;SDS011;11483;55.828;37.488;2023-02-28T14:40:46;4.97;;;2.50;;
22632;SDS011;11483;55.828;37.488;2023-02-28T14:43:06;3.63;;;2.13;;
22632;SDS011;11483;55.828;37.488;2023-02-28T14:45:43;5.50;;;2.77;;
22632;SDS011;11483;55.828;37.488;2023-02-28T14:48:14;6.77;;;2.70;;
22632;SDS011;11483;55.828;37.488;2023-02-28T14:50:47;5.50;;;2.60;;
22632;SDS011;11483;55.828;37.488;2023-02-28T14:53:18;4.33;;;2.47;;
22632;SDS011;11483;55.828;37.488;2023-02-28T14:55:46;4.43;;;2.50;;
22632;SDS011;11483;55.828;37.488;2023-02-28T15:00:57;7.50;;;2.80;;
22632;SDS011;11483;55.828;37.488;2023-02-28T15:06:19;5.10;;;2.77;;
22632;SDS011;11483;55.828;37.488;2023-02-28T15:08:45;7.43;;;2.70;;
22632;SDS011;11483;55.828;37.488;2023-02-28T15:11:15;8.20;;;2.43;;
22632;SDS011;11483;55.828;37.488;2023-02-28T15:13:53;7.87;;;2.70;;
22632;SDS011;11483;55.828;37.488;2023-02-28T15:19:06;8.03;;;2.83;;
22632;SDS011;11483;55.828;37.488;2023-02-28T15:21:41;6.60;;;2.97;;
22632;SDS011;11483;55.828;37.488;2023-02-28T15:24:15;3.90;;;2.53;;
22632;SDS011;11483;55.828;37.488;2023-02-28T15:26:57;7.30;;;2.53;;
22632;SDS011;11483;55.828;37.488;2023-02-28T15:29:27;4.07;;;2.47;;
22632;SDS011;11483;55.828;37.488;2023-02-28T15:32:02;4.33;;;2.27;;
22632;SDS011;11483;55.828;37.488;2023-02-28T15:37:01;6.00;;;2.37;;
22632;SDS011;11483;55.828;37.488;2023-02-28T15:40:44;4.13;;;2.57;;
22632;SDS011;11483;55.828;37.488;2023-02-28T15:43:04;3.80;;;2.20;;
22632;SDS011;11483;55.828;37.488;2023-02-28T15:46:09;4.60;;;2.30;;
22632;SDS011;11483;55.828;37.488;2023-02-28T15:48:53;2.80;;;1.87;;
22632;SDS011;11483;55.828;37.488;2023-02-28T15:51:22;3.80;;;2.40;;
22632;SDS011;11483;55.828;37.488;2023-02-28T15:54:02;6.13;;;2.30;;
22632;SDS011;11483;55.828;37.488;2023-02-28T15:56:38;5.33;;;2.70;;
22632;SDS011;11483;55.828;37.488;2023-02-28T15:59:14;4.17;;;2.30;;
22632;SDS011;11483;55.828;37.488;2023-02-28T16:04:35;2.87;;;2.20;;
22632;SDS011;11483;55.828;37.488;2023-02-28T16:07:03;3.90;;;2.10;;
22632;SDS011;11483;55.828;37.488;2023-02-28T16:09:31;7.63;;;2.50;;
22632;SDS011;11483;55.828;37.488;2023-02-28T16:12:01;4.60;;;2.10;;
22632;SDS011;11483;55.828;37.488;2023-02-28T16:14:28;2.87;;;2.00;;
22632;SDS011;11483;55.828;37.488;2023-02-28T16:17:05;8.23;;;2.53;;
22632;SDS011;11483;55.828;37.488;2023-02-28T16:19:35;7.63;;;2.47;;
22632;SDS011;11483;55.828;37.488;2023-02-28T16:22:01;13.00;;;2.53;;
22632;SDS011;11483;55.828;37.488;2023-02-28T16:24:27;5.13;;;2.30;;
22632;SDS011;11483;55.828;37.488;2023-02-28T16:26:53;2.67;;;1.97;;
22632;SDS011;11483;55.828;37.488;2023-02-28T16:29:29;5.63;;;2.60;;
22632;SDS011;11483;55.828;37.488;2023-02-28T16:31:58;4.70;;;2.40;;
22632;SDS011;11483;55.828;37.488;2023-02-28T16:34:25;2.80;;;1.73;;
22632;SDS011;11483;55.828;37.488;2023-02-28T16:36:51;4.83;;;2.60;;
22632;SDS011;11483;55.828;37.488;2023-02-28T16:39:17;5.87;;;2.50;;
22632;SDS011;11483;55.828;37.488;2023-02-28T16:41:45;4.90;;;2.37;;
22632;SDS011;11483;55.828;37.488;2023-02-28T16:44:33;2.77;;;1.93;;
22632;SDS011;11483;55.828;37.488;2023-02-28T16:47:00;6.53;;;2.67;;
22632;SDS011;11483;55.828;37.488;2023-02-28T16:49:28;4.67;;;2.33;;
22632;SDS011;11483;55.828;37.488;2023-02-28T16:51:54;5.37;;;2.40;;
22632;SDS011;11483;55.828;37.488;2023-02-28T16:54:20;5.47;;;2.90;;
22632;SDS011;11483;55.828;37.488;2023-02-28T16:56:47;4.70;;;2.50;;
22632;SDS011;11483;55.828;37.488;2023-02-28T16:59:14;6.40;;;2.30;;
22632;SDS011;11483;55.828;37.488;2023-02-28T17:01:51;4.50;;;2.43;;
22632;SDS011;11483;55.828;37.488;2023-02-28T17:04:17;6.07;;;2.60;;
22632;SDS011;11483;55.828;37.488;2023-02-28T17:06:43;4.20;;;2.50;;
22632;SDS011;11483;55.828;37.488;2023-02-28T17:09:16;9.77;;;2.70;;
22632;SDS011;11483;55.828;37.488;2023-02-28T17:11:44;7.50;;;2.60;;
22632;SDS011;11483;55.828;37.488;2023-02-28T17:14:11;6.60;;;2.53;;
22632;SDS011;11483;55.828;37.488;2023-02-28T17:16:37;6.87;;;2.53;;
22632;SDS011;11483;55.828;37.488;2023-02-28T17:19:13;4.23;;;2.20;;
22632;SDS011;11483;55.828;37.488;2023-02-28T17:21:41;4.73;;;2.10;;
22632;SDS011;11483;55.828;37.488;2023-02-28T17:24:08;3.77;;;2.03;;
22632;SDS011;11483;55.828;37.488;2023-02-28T17:26:37;4.90;;;2.07;;
22632;SDS011;11483;55.828;37.488;2023-02-28T17:29:18;5.47;;;2.23;;
22632;SDS011;11483;55.828;37.488;2023-02-28T17:31:45;2.83;;;1.57;;
22632;SDS011;11483;55.828;37.488;2023-02-28T17:34:11;3.80;;;1.40;;
22632;SDS011;11483;55.828;37.488;2023-02-28T17:36:43;2.60;;;1.20;;
22632;SDS011;11483;55.828;37.488;2023-02-28T17:39:11;2.80;;;1.70;;
22632;SDS011;11483;55.828;37.488;2023-02-28T17:41:49;1.67;;;0.93;;
22632;SDS011;11483;55.828;37.488;2023-02-28T17:44:23;3.27;;;1.20;;
22632;SDS011;11483;55.828;37.488;2023-02-28T17:46:50;1.53;;;0.60;;